Russia, Ohio
Current Conditions -  °F | °C
As of 1:55 AM on Sunday 23 Nov 2014 (Local Time) from KVES Reporting Station
Light Rain Light Rain  
Wind Chill: 42°   Ceiling: 4800
Heat Index: 45°   Visibility: 10mi
Dew Point: 41°   Wind: 5mph
Humidity: 87%   Direction: 180°S
Pressure: 30.02"   Gusts: NA
Location:  40.23°N, 84.41°W
Report Text: KVES 230655Z AUTO 18004KT 10SM -RA BKN048 OVC050 07/05 A3002 RMK AO2 P0001
Loading
Personal Weather Stations






























Interactive Weather Map New forecast layout! Learn more

10-Day Weather Forecast

Advertisements
Track Severe Weather on mobile